Forside
METAR-TAF:

METAR-TAF

Lufthavne :

Växjö, Sverige

Breddekreds: 56-51N, længdekreds: 014-50E, højde: 199 m

Aktuelle vejr

Denne rapport blev lavet for 18 minutter siden, kl. 03:50 UTC
Vind 9 kt fra syd
Temperatur 4°C
Fugtighed 100%
Tryk 1009 hPa
Sigt: 4800 m
let finregn

METAR: ESMX 180350Z AUTO 19009KT 4800 -DZ OVC003/// 04/04 Q1009 REDZ

Tid: 05:08 (04:08 UTC)

Vejrudsigter

Denne rapport blev lavet for 10 timer og 38 minutter siden, kl. 17:30 UTC
Foreløbig gælder fra 17 på 18 UTC til 17 på 22 UTC
Vind 8 kt fra sydsydøst
Sigt: 6000 m
Spredte skyer i en højde af 600 ft
Sandsynlighed 40%
fra 17 på 18 UTC til 17 på 22 UTC
Sigt: 3000 m
Brudte skyer i en højde af 400 ft
dis

TAF: ESMX 171730Z 1718/1722 16008KT 6000 SCT006 PROB40 1718/1722 3000 BR BKN004

Vejrobservationer og prognoser fra mere end 4000 lufthavne (METAR og TAF).

De gule og røde prikker repræsenterer de meteorologiske stationer.

Flyt musen over at se navnet på stationen.

Så klik over at se vejr observationer og prognoser.

At skifte det kort: Klik på de grønne knapper med et sort kors for at zoome ind; på den grønne knap med en bindestreg for at zoome ud; eller på de grønne pile for tilstødende kort.


METAR-TAF: